This is the latest recevied weather packets stored in our database for station/object KE8AFF-13. If no packets are shown the sender has not sent any weather packets the latest 10 day(s).
| Time | Temp. | Humidity | Pressure | Rain* | Wind** | Luminosity | Snow |
|---|---|---|---|---|---|---|---|
| 1777724625 | 2.78° C | 87% | 1018.4 hPa | 0 mm | - | 208 W/m² | - |
| 1777724319 | 2.22° C | 87% | 1018.4 hPa | 0 mm | - | 196 W/m² | - |
| 1777724016 | 2.22° C | 86% | 1018.4 hPa | 0 mm | - | 188 W/m² | - |
| 1777723713 | 2.22° C | 86% | 1018.3 hPa | 0 mm | - | 155 W/m² | - |
| 1777723409 | 2.22° C | 86% | 1018.1 hPa | 0 mm | - | 140 W/m² | - |
| 1777723107 | 1.67° C | 86% | 1018.2 hPa | 0 mm | - | 55 W/m² | - |
| 1777722804 | 2.22° C | 86% | 1018.3 hPa | 0 mm | - | 113 W/m² | - |
| 1777722500 | 1.67° C | 86% | 1018.2 hPa | 0 mm | - | 91 W/m² | - |
| 1777722197 | 1.67° C | 87% | 1018.1 hPa | 0 mm | - | 70 W/m² | - |
| 1777721894 | 1.67° C | 88% | 1018.2 hPa | 0 mm | - | 52 W/m² | - |
| 1777721592 | 1.11° C | 89% | 1018.3 hPa | 0 mm | - | 42 W/m² | - |
| 1777721290 | 1.11° C | 89% | 1018.4 hPa | 0 mm | - | 44 W/m² | - |
| 1777720987 | 1.11° C | 89% | 1018.3 hPa | 0 mm | - | 31 W/m² | - |
| 1777720684 | 1.11° C | 90% | 1018 hPa | 0 mm | - | 29 W/m² | - |
| 1777720382 | 0.56° C | 90% | 1018 hPa | 0 mm | - | 32 W/m² | - |
| 1777720079 | 0.56° C | 91% | 1017.9 hPa | 0 mm | - | 22 W/m² | - |
| 1777719776 | 0.56° C | 91% | 1017.9 hPa | 0 mm | - | 19 W/m² | - |
| 1777719474 | 0.56° C | 91% | 1018 hPa | 0 mm | - | 17 W/m² | - |
| 1777719169 | 0.56° C | 91% | 1017.6 hPa | 0 mm | - | 13 W/m² | - |
| 1777718868 | 0.56° C | 91% | 1017.7 hPa | 0 mm | - | 10 W/m² | - |
| 1777718566 | 0.56° C | 91% | 1017.5 hPa | 0 mm | - | 7 W/m² | - |
| 1777718263 | 0.56° C | 90% | 1017.6 hPa | 0 mm | - | 4 W/m² | - |
| 1777717960 | 0.56° C | 90% | 1017.7 hPa | 0 mm | - | 3 W/m² | - |
| 1777717657 | 0.56° C | 90% | 1017.8 hPa | 0 mm | - | 1 W/m² | - |
| 1777717354 | 0.56° C | 90% | 1017.8 hPa | 0 mm | - | 0 W/m² | - |
* Rain latest hour (hover to see other rain measurements)
** Current wind speed in m/s (hover to see current wind gust speed)